Aeroporto :
LOGIN :

Iscrizione | Disclaimer

   EN    FR    IT 

 










Sommario :    VFR   VFR Marginale   IFR   IFR Intensivo   IFR Molto Intensivo
Visibilità : 
Base nubi : 
>= 8 km
>= 3000ft
5 / 8 km
1000 / 3000 ft
1500m / 5 km
500 / 1000 ft
800 / 1500m
200 / 500 ft
< 800m
< 200 ft
Simboli :   Temporali  Nebbia  Neve Forte  Precipitazioni Forti  Vento > 20 kt
SIGMETs :   Varie  Temporali  Ghiacco  Turbolenza  Onda orograficha  Ceneri Vulcaniche







- Altitudine del aeroporto : 1273 ft
- Codice IATA : LJU


LJLJ - Ljubljana

ULTIMO METAR :
  • 210900Z VRB02KT CAVOK 14/07 Q1027 NOSIG

METARs OBSOLETI :
  • 210830Z VRB02KT CAVOK 12/08 Q1027 NOSIG
  • 210800Z 00000KT CAVOK 11/07 Q1027 NOSIG
  • 210730Z 31001KT CAVOK 09/07 Q1027 NOSIG
  • 210700Z VRB02KT CAVOK 08/06 Q1027 NOSIG
  • 210630Z VRB01KT CAVOK 06/05 Q1027 NOSIG

TAF TAF LJLJ
Valido dal 21 a 09 ore il 22 a 09 ore UTC


210800Z 2109/2209 VRB02KT CAVOK
BECMG 2109/2110 12005KT
BECMG 2118/2119 30003KT
Nessun NOTAM noto per questo aeroporto.



MetMap, La meteo Aeronautica in un colpo d'occhio ! - Copyright ORBIFLY Dicembre 2007 - Disclaimer

ORBIFLY MET'MAP TEAM :

Programmazione e sviluppo : Alexandra Zaïnal
Concezione e sviluppo : Baudouin d'Aumeries
Co-Programmazione e sviluppo : Marc-Olivier Méhu
Supporto tecnico e logistico : Manuel Goepfert
Aiuto per la traduzione : Arnaldo La Scala

Contatto : metmap@orbifly.com




FONTI E CREDITI :

   NOAA